sensor_id;sensor_type;location;lat;lon;timestamp;pressure;altitude;pressure_sealevel;temperature;humidity
70544;BME280;58097;48.364;-1.224;2023-06-14T00:01:36;99358.44;;;18.56;72.99
70544;BME280;58097;48.364;-1.224;2023-06-14T00:04:03;99353.72;;;18.57;72.95
70544;BME280;58097;48.364;-1.224;2023-06-14T00:06:30;99359.53;;;18.55;72.37
70544;BME280;58097;48.364;-1.224;2023-06-14T00:08:56;99361.25;;;18.56;72.40
70544;BME280;58097;48.364;-1.224;2023-06-14T00:11:21;99356.56;;;18.44;74.16
70544;BME280;58097;48.364;-1.224;2023-06-14T00:13:46;99357.44;;;18.44;73.04
70544;BME280;58097;48.364;-1.224;2023-06-14T00:16:12;99359.31;;;18.25;74.82
70544;BME280;58097;48.364;-1.224;2023-06-14T00:18:38;99363.59;;;18.28;74.84
70544;BME280;58097;48.364;-1.224;2023-06-14T00:21:04;99356.50;;;18.25;74.43
70544;BME280;58097;48.364;-1.224;2023-06-14T00:23:30;99362.72;;;18.27;74.08
70544;BME280;58097;48.364;-1.224;2023-06-14T00:25:55;99362.72;;;18.27;73.46
70544;BME280;58097;48.364;-1.224;2023-06-14T00:28:21;99353.25;;;18.29;73.97
70544;BME280;58097;48.364;-1.224;2023-06-14T00:30:46;99363.34;;;18.30;73.50
70544;BME280;58097;48.364;-1.224;2023-06-14T00:33:12;99358.84;;;18.29;73.57
70544;BME280;58097;48.364;-1.224;2023-06-14T00:35:37;99356.28;;;18.20;75.12
70544;BME280;58097;48.364;-1.224;2023-06-14T00:38:03;99361.13;;;18.07;76.16
70544;BME280;58097;48.364;-1.224;2023-06-14T00:40:28;99360.25;;;18.06;74.44
70544;BME280;58097;48.364;-1.224;2023-06-14T00:42:54;99360.06;;;18.01;75.08
70544;BME280;58097;48.364;-1.224;2023-06-14T00:45:19;99363.50;;;18.03;74.65
70544;BME280;58097;48.364;-1.224;2023-06-14T00:47:45;99366.47;;;18.08;74.79
70544;BME280;58097;48.364;-1.224;2023-06-14T00:50:11;99363.47;;;18.10;74.56
70544;BME280;58097;48.364;-1.224;2023-06-14T00:52:39;99361.53;;;18.10;74.65
70544;BME280;58097;48.364;-1.224;2023-06-14T00:55:05;99364.94;;;18.12;74.67
70544;BME280;58097;48.364;-1.224;2023-06-14T00:57:31;99364.72;;;18.14;74.13
70544;BME280;58097;48.364;-1.224;2023-06-14T00:59:57;99362.56;;;18.16;74.02
70544;BME280;58097;48.364;-1.224;2023-06-14T01:02:22;99360.22;;;18.13;75.13
70544;BME280;58097;48.364;-1.224;2023-06-14T01:04:50;99361.53;;;18.10;76.29
70544;BME280;58097;48.364;-1.224;2023-06-14T01:07:45;99360.72;;;18.03;74.96
70544;BME280;58097;48.364;-1.224;2023-06-14T01:13:07;99355.56;;;18.00;75.50
70544;BME280;58097;48.364;-1.224;2023-06-14T01:15:35;99365.53;;;17.83;77.81
70544;BME280;58097;48.364;-1.224;2023-06-14T01:18:02;99363.41;;;17.78;76.28
70544;BME280;58097;48.364;-1.224;2023-06-14T01:20:30;99358.03;;;17.63;78.12
70544;BME280;58097;48.364;-1.224;2023-06-14T01:22:56;99354.41;;;17.70;76.66
70544;BME280;58097;48.364;-1.224;2023-06-14T01:25:22;99353.75;;;17.74;76.16
70544;BME280;58097;48.364;-1.224;2023-06-14T01:27:54;99355.88;;;17.79;75.79
70544;BME280;58097;48.364;-1.224;2023-06-14T01:30:21;99350.47;;;17.84;75.89
70544;BME280;58097;48.364;-1.224;2023-06-14T01:32:48;99348.94;;;17.88;75.42
70544;BME280;58097;48.364;-1.224;2023-06-14T01:35:15;99354.31;;;17.89;75.56
70544;BME280;58097;48.364;-1.224;2023-06-14T01:37:43;99354.31;;;17.89;76.42
70544;BME280;58097;48.364;-1.224;2023-06-14T01:40:10;99352.63;;;17.82;76.22
70544;BME280;58097;48.364;-1.224;2023-06-14T01:42:36;99355.66;;;17.80;76.00
70544;BME280;58097;48.364;-1.224;2023-06-14T01:45:04;99359.53;;;17.79;75.65
70544;BME280;58097;48.364;-1.224;2023-06-14T01:47:31;99352.63;;;17.82;75.54
70544;BME280;58097;48.364;-1.224;2023-06-14T01:49:57;99350.47;;;17.84;75.09
70544;BME280;58097;48.364;-1.224;2023-06-14T01:52:22;99345.72;;;17.84;74.87
70544;BME280;58097;48.364;-1.224;2023-06-14T01:54:49;99347.44;;;17.85;74.93
70544;BME280;58097;48.364;-1.224;2023-06-14T01:57:15;99348.75;;;17.83;74.50
70544;BME280;58097;48.364;-1.224;2023-06-14T01:59:40;99354.34;;;17.83;74.73
70544;BME280;58097;48.364;-1.224;2023-06-14T02:02:05;99355.41;;;17.82;74.40
70544;BME280;58097;48.364;-1.224;2023-06-14T02:04:31;99356.50;;;17.81;74.24
70544;BME280;58097;48.364;-1.224;2023-06-14T02:06:56;99356.72;;;17.79;74.31
70544;BME280;58097;48.364;-1.224;2023-06-14T02:09:21;99358.88;;;17.77;74.46
70544;BME280;58097;48.364;-1.224;2023-06-14T02:11:47;99356.31;;;17.76;74.60
70544;BME280;58097;48.364;-1.224;2023-06-14T02:14:12;99353.34;;;17.71;74.14
70544;BME280;58097;48.364;-1.224;2023-06-14T02:16:38;99345.41;;;17.68;74.51
70544;BME280;58097;48.364;-1.224;2023-06-14T02:19:04;99347.53;;;17.65;74.77
70544;BME280;58097;48.364;-1.224;2023-06-14T02:21:30;99345.81;;;17.64;74.71
70544;BME280;58097;48.364;-1.224;2023-06-14T02:23:55;99350.72;;;17.62;74.88
70544;BME280;58097;48.364;-1.224;2023-06-14T02:26:21;99346.84;;;17.63;74.87
70544;BME280;58097;48.364;-1.224;2023-06-14T02:28:48;99344.28;;;17.62;75.24
70544;BME280;58097;48.364;-1.224;2023-06-14T02:31:13;99342.56;;;17.61;75.09
70544;BME280;58097;48.364;-1.224;2023-06-14T02:33:38;99340.00;;;17.59;75.20
70544;BME280;58097;48.364;-1.224;2023-06-14T02:36:04;99343.66;;;17.60;75.03
70544;BME280;58097;48.364;-1.224;2023-06-14T02:38:30;99348.38;;;17.59;75.34
70544;BME280;58097;48.364;-1.224;2023-06-14T02:40:55;99346.25;;;17.55;74.95
70544;BME280;58097;48.364;-1.224;2023-06-14T02:43:21;99341.09;;;17.52;75.49
70544;BME280;58097;48.364;-1.224;2023-06-14T02:45:46;99345.59;;;17.53;75.13
70544;BME280;58097;48.364;-1.224;2023-06-14T02:48:11;99349.03;;;17.55;75.10
70544;BME280;58097;48.364;-1.224;2023-06-14T02:50:37;99344.53;;;17.54;75.03
70544;BME280;58097;48.364;-1.224;2023-06-14T02:53:02;99347.97;;;17.56;75.29
70544;BME280;58097;48.364;-1.224;2023-06-14T02:55:28;99345.59;;;17.53;75.56
70544;BME280;58097;48.364;-1.224;2023-06-14T02:57:53;99345.84;;;17.51;75.51
70544;BME280;58097;48.364;-1.224;2023-06-14T03:00:19;99342.19;;;17.51;75.21
70544;BME280;58097;48.364;-1.224;2023-06-14T03:02:44;99346.69;;;17.52;75.36
70544;BME280;58097;48.364;-1.224;2023-06-14T03:05:11;99337.44;;;17.51;75.56
70544;BME280;58097;48.364;-1.224;2023-06-14T03:07:36;99338.31;;;17.52;75.32
70544;BME280;58097;48.364;-1.224;2023-06-14T03:10:07;99337.22;;;17.53;75.75
70544;BME280;58097;48.364;-1.224;2023-06-14T03:12:33;99343.03;;;17.51;75.84
70544;BME280;58097;48.364;-1.224;2023-06-14T03:14:58;99340.25;;;17.51;75.90
70544;BME280;58097;48.364;-1.224;2023-06-14T03:17:27;99339.38;;;17.51;75.56
70544;BME280;58097;48.364;-1.224;2023-06-14T03:19:55;99341.31;;;17.50;75.54
70544;BME280;58097;48.364;-1.224;2023-06-14T03:22:20;99343.47;;;17.48;75.43
70544;BME280;58097;48.364;-1.224;2023-06-14T03:24:47;99344.56;;;17.47;75.51
70544;BME280;58097;48.364;-1.224;2023-06-14T03:27:13;99341.13;;;17.45;75.67
70544;BME280;58097;48.364;-1.224;2023-06-14T03:29:39;99346.72;;;17.45;75.60
70544;BME280;58097;48.364;-1.224;2023-06-14T03:32:05;99348.00;;;17.43;75.26
70544;BME280;58097;48.364;-1.224;2023-06-14T03:34:30;99345.22;;;17.43;75.29
70544;BME280;58097;48.364;-1.224;2023-06-14T03:36:56;99352.53;;;17.44;75.48
70544;BME280;58097;48.364;-1.224;2023-06-14T03:39:21;99344.81;;;17.39;75.28
70544;BME280;58097;48.364;-1.224;2023-06-14T03:41:46;99351.47;;;17.38;75.34
70544;BME280;58097;48.364;-1.224;2023-06-14T03:44:17;99349.13;;;17.35;75.85
70544;BME280;58097;48.364;-1.224;2023-06-14T03:46:43;99358.75;;;17.32;75.79
70544;BME280;58097;48.364;-1.224;2023-06-14T03:49:09;99357.91;;;17.32;75.50
70544;BME280;58097;48.364;-1.224;2023-06-14T03:51:35;99360.91;;;17.30;75.56
70544;BME280;58097;48.364;-1.224;2023-06-14T03:54:00;99360.06;;;17.30;75.54
70544;BME280;58097;48.364;-1.224;2023-06-14T03:56:26;99357.72;;;17.27;75.43
70544;BME280;58097;48.364;-1.224;2023-06-14T03:58:52;99359.66;;;17.26;75.78
70544;BME280;58097;48.364;-1.224;2023-06-14T04:01:17;99365.22;;;17.26;75.77
70544;BME280;58097;48.364;-1.224;2023-06-14T04:03:43;99366.31;;;17.25;76.00
70544;BME280;58097;48.364;-1.224;2023-06-14T04:06:08;99369.72;;;17.27;75.93
70544;BME280;58097;48.364;-1.224;2023-06-14T04:08:34;99365.22;;;17.26;75.56
70544;BME280;58097;48.364;-1.224;2023-06-14T04:11:00;99368.25;;;17.25;75.94
70544;BME280;58097;48.364;-1.224;2023-06-14T04:13:25;99369.97;;;17.26;76.06
70544;BME280;58097;48.364;-1.224;2023-06-14T04:15:51;99373.81;;;17.25;76.01
70544;BME280;58097;48.364;-1.224;2023-06-14T04:18:16;99372.75;;;17.26;75.99
70544;BME280;58097;48.364;-1.224;2023-06-14T04:20:43;99375.75;;;17.24;76.00
70544;BME280;58097;48.364;-1.224;2023-06-14T04:23:16;99374.47;;;17.27;75.70
70544;BME280;58097;48.364;-1.224;2023-06-14T04:25:44;99371.66;;;17.27;76.00
70544;BME280;58097;48.364;-1.224;2023-06-14T04:28:15;99380.28;;;17.25;75.61
70544;BME280;58097;48.364;-1.224;2023-06-14T04:30:41;99386.94;;;17.24;75.77
70544;BME280;58097;48.364;-1.224;2023-06-14T04:33:07;99389.09;;;17.22;76.18
70544;BME280;58097;48.364;-1.224;2023-06-14T04:35:33;99393.38;;;17.25;76.04
70544;BME280;58097;48.364;-1.224;2023-06-14T04:38:01;99390.56;;;17.25;76.09
70544;BME280;58097;48.364;-1.224;2023-06-14T04:40:27;99395.53;;;17.23;76.08
70544;BME280;58097;48.364;-1.224;2023-06-14T04:42:52;99406.69;;;17.23;76.33
70544;BME280;58097;48.364;-1.224;2023-06-14T04:45:18;99400.47;;;17.21;76.44
70544;BME280;58097;48.364;-1.224;2023-06-14T04:47:43;99400.47;;;17.21;76.28
70544;BME280;58097;48.364;-1.224;2023-06-14T04:50:10;99397.91;;;17.19;76.57
70544;BME280;58097;48.364;-1.224;2023-06-14T04:52:36;99399.63;;;17.20;76.79
70544;BME280;58097;48.364;-1.224;2023-06-14T04:55:02;99407.13;;;17.20;76.84
70544;BME280;58097;48.364;-1.224;2023-06-14T04:57:28;99406.91;;;17.21;76.74
70544;BME280;58097;48.364;-1.224;2023-06-14T04:59:54;99409.28;;;17.18;77.05
70544;BME280;58097;48.364;-1.224;2023-06-14T05:02:23;99413.78;;;17.19;77.29
70544;BME280;58097;48.364;-1.224;2023-06-14T05:04:49;99408.22;;;17.19;76.97
70544;BME280;58097;48.364;-1.224;2023-06-14T05:07:15;99416.59;;;17.19;77.03
70544;BME280;58097;48.364;-1.224;2023-06-14T05:09:40;99414.66;;;17.19;77.18
70544;BME280;58097;48.364;-1.224;2023-06-14T05:12:06;99416.78;;;17.24;77.27
70544;BME280;58097;48.364;-1.224;2023-06-14T05:14:35;99414.63;;;17.26;77.67
70544;BME280;58097;48.364;-1.224;2023-06-14T05:17:01;99420.63;;;17.29;77.71
70544;BME280;58097;48.364;-1.224;2023-06-14T05:19:27;99414.22;;;17.36;77.24
70544;BME280;58097;48.364;-1.224;2023-06-14T05:21:53;99411.63;;;17.41;77.50
70544;BME280;58097;48.364;-1.224;2023-06-14T05:24:18;99413.75;;;17.45;77.08
70544;BME280;58097;48.364;-1.224;2023-06-14T05:26:44;99418.91;;;17.48;77.24
70544;BME280;58097;48.364;-1.224;2023-06-14T05:29:10;99405.78;;;17.49;77.52
70544;BME280;58097;48.364;-1.224;2023-06-14T05:31:35;99418.88;;;17.55;78.04
70544;BME280;58097;48.364;-1.224;2023-06-14T05:34:00;99419.31;;;17.58;77.87
70544;BME280;58097;48.364;-1.224;2023-06-14T05:36:26;99425.56;;;17.67;78.22
70544;BME280;58097;48.364;-1.224;2023-06-14T05:38:53;99420.59;;;17.76;77.79
70544;BME280;58097;48.364;-1.224;2023-06-14T05:41:24;99430.00;;;17.88;78.01
70544;BME280;58097;48.364;-1.224;2023-06-14T05:43:49;99424.81;;;17.98;77.49
70544;BME280;58097;48.364;-1.224;2023-06-14T05:46:15;99433.59;;;18.08;77.48
70544;BME280;58097;48.364;-1.224;2023-06-14T05:48:40;99430.94;;;18.20;78.05
70544;BME280;58097;48.364;-1.224;2023-06-14T05:51:05;99432.84;;;18.33;77.90
70544;BME280;58097;48.364;-1.224;2023-06-14T05:53:34;99434.06;;;18.43;78.06
70544;BME280;58097;48.364;-1.224;2023-06-14T05:55:59;99429.47;;;18.55;77.82
70544;BME280;58097;48.364;-1.224;2023-06-14T05:58:24;99430.91;;;18.71;77.79
70544;BME280;58097;48.364;-1.224;2023-06-14T06:00:50;99434.09;;;18.81;77.68
70544;BME280;58097;48.364;-1.224;2023-06-14T06:03:15;99430.38;;;18.87;77.26
70544;BME280;58097;48.364;-1.224;2023-06-14T06:05:41;99435.69;;;18.96;77.13
70544;BME280;58097;48.364;-1.224;2023-06-14T06:08:06;99436.94;;;19.00;76.98
70544;BME280;58097;48.364;-1.224;2023-06-14T06:10:32;99441.63;;;19.06;76.86
70544;BME280;58097;48.364;-1.224;2023-06-14T06:12:57;99447.84;;;19.08;76.96
70544;BME280;58097;48.364;-1.224;2023-06-14T06:15:22;99445.25;;;19.13;77.14
70544;BME280;58097;48.364;-1.224;2023-06-14T06:17:48;99444.09;;;19.21;77.09
70544;BME280;58097;48.364;-1.224;2023-06-14T06:20:13;99452.22;;;19.29;77.24
70544;BME280;58097;48.364;-1.224;2023-06-14T06:22:38;99453.44;;;19.39;77.33
70544;BME280;58097;48.364;-1.224;2023-06-14T06:25:04;99456.34;;;19.51;77.04
70544;BME280;58097;48.364;-1.224;2023-06-14T06:27:31;99455.59;;;19.62;77.04
70544;BME280;58097;48.364;-1.224;2023-06-14T06:29:56;99455.09;;;19.72;76.62
70544;BME280;58097;48.364;-1.224;2023-06-14T06:32:22;99454.31;;;19.83;77.12
70544;BME280;58097;48.364;-1.224;2023-06-14T06:34:47;99457.84;;;19.97;77.08
70544;BME280;58097;48.364;-1.224;2023-06-14T06:37:13;99460.25;;;20.11;76.71
70544;BME280;58097;48.364;-1.224;2023-06-14T06:39:39;99461.88;;;20.19;76.16
70544;BME280;58097;48.364;-1.224;2023-06-14T06:42:04;99463.97;;;20.24;76.21
70544;BME280;58097;48.364;-1.224;2023-06-14T06:44:30;99466.94;;;20.29;75.91
70544;BME280;58097;48.364;-1.224;2023-06-14T06:46:56;99460.38;;;20.35;75.79
70544;BME280;58097;48.364;-1.224;2023-06-14T06:49:22;99460.56;;;20.40;75.95
70544;BME280;58097;48.364;-1.224;2023-06-14T06:52:04;99458.91;;;20.51;76.18
70544;BME280;58097;48.364;-1.224;2023-06-14T06:54:30;99466.28;;;20.63;76.04
70544;BME280;58097;48.364;-1.224;2023-06-14T06:56:56;99468.28;;;20.75;76.13
70544;BME280;58097;48.364;-1.224;2023-06-14T06:59:21;99459.53;;;20.83;76.04
70544;BME280;58097;48.364;-1.224;2023-06-14T07:01:46;99471.66;;;20.95;76.18
70544;BME280;58097;48.364;-1.224;2023-06-14T07:04:12;99477.31;;;21.07;75.83
70544;BME280;58097;48.364;-1.224;2023-06-14T07:06:38;99482.38;;;21.16;74.97
70544;BME280;58097;48.364;-1.224;2023-06-14T07:09:03;99485.16;;;21.16;74.82
70544;BME280;58097;48.364;-1.224;2023-06-14T07:11:30;99485.47;;;21.26;75.22
70544;BME280;58097;48.364;-1.224;2023-06-14T07:13:55;99483.03;;;21.30;75.16
70544;BME280;58097;48.364;-1.224;2023-06-14T07:16:21;99482.66;;;21.38;74.95
70544;BME280;58097;48.364;-1.224;2023-06-14T07:18:47;99487.81;;;21.41;74.41
70544;BME280;58097;48.364;-1.224;2023-06-14T07:21:12;99482.94;;;21.48;75.07
70544;BME280;58097;48.364;-1.224;2023-06-14T07:23:37;99491.00;;;21.56;74.63
70544;BME280;58097;48.364;-1.224;2023-06-14T07:26:03;99487.81;;;21.64;74.37
70544;BME280;58097;48.364;-1.224;2023-06-14T07:28:28;99495.69;;;21.74;74.84
70544;BME280;58097;48.364;-1.224;2023-06-14T07:30:53;99497.00;;;21.83;74.72
70544;BME280;58097;48.364;-1.224;2023-06-14T07:33:19;99501.06;;;21.99;73.87
70544;BME280;58097;48.364;-1.224;2023-06-14T07:35:44;99499.00;;;22.06;72.88
70544;BME280;58097;48.364;-1.224;2023-06-14T07:38:11;99506.44;;;22.12;72.68
70544;BME280;58097;48.364;-1.224;2023-06-14T07:41:06;99506.69;;;22.22;72.81
70544;BME280;58097;48.364;-1.224;2023-06-14T07:43:31;99504.34;;;22.31;72.48
70544;BME280;58097;48.364;-1.224;2023-06-14T07:45:57;99515.72;;;22.36;72.56
70544;BME280;58097;48.364;-1.224;2023-06-14T07:48:22;99510.56;;;22.45;73.27
70544;BME280;58097;48.364;-1.224;2023-06-14T07:50:48;99505.13;;;22.55;72.65
70544;BME280;58097;48.364;-1.224;2023-06-14T07:53:13;99506.22;;;22.66;73.57
70544;BME280;58097;48.364;-1.224;2023-06-14T07:55:38;99514.38;;;22.79;73.76
70544;BME280;58097;48.364;-1.224;2023-06-14T07:58:07;99515.00;;;22.81;71.16
70544;BME280;58097;48.364;-1.224;2023-06-14T08:00:32;99515.22;;;22.91;72.14
70544;BME280;58097;48.364;-1.224;2023-06-14T08:02:58;99516.13;;;23.08;73.14
70544;BME280;58097;48.364;-1.224;2023-06-14T08:05:27;99514.56;;;23.29;72.94
70544;BME280;58097;48.364;-1.224;2023-06-14T08:07:53;99521.06;;;23.46;72.49
70544;BME280;58097;48.364;-1.224;2023-06-14T08:10:19;99520.66;;;23.55;70.58
70544;BME280;58097;48.364;-1.224;2023-06-14T08:12:44;99512.97;;;23.67;72.05
70544;BME280;58097;48.364;-1.224;2023-06-14T08:15:10;99521.91;;;23.75;71.70
70544;BME280;58097;48.364;-1.224;2023-06-14T08:17:35;99516.91;;;23.83;71.71
70544;BME280;58097;48.364;-1.224;2023-06-14T08:20:01;99520.41;;;23.90;71.42
70544;BME280;58097;48.364;-1.224;2023-06-14T08:22:27;99531.88;;;24.00;69.68
70544;BME280;58097;48.364;-1.224;2023-06-14T08:24:56;99525.34;;;23.99;68.10
70544;BME280;58097;48.364;-1.224;2023-06-14T08:27:22;99525.13;;;24.01;68.09
70544;BME280;58097;48.364;-1.224;2023-06-14T08:29:47;99529.22;;;24.10;69.80
70544;BME280;58097;48.364;-1.224;2023-06-14T08:32:13;99526.53;;;24.20;69.38
70544;BME280;58097;48.364;-1.224;2023-06-14T08:34:38;99528.50;;;24.36;69.43
70544;BME280;58097;48.364;-1.224;2023-06-14T08:37:04;99533.97;;;24.43;66.79
70544;BME280;58097;48.364;-1.224;2023-06-14T08:39:30;99534.25;;;24.63;69.26
70544;BME280;58097;48.364;-1.224;2023-06-14T08:41:56;99534.75;;;24.82;68.28
70544;BME280;58097;48.364;-1.224;2023-06-14T08:44:22;99543.38;;;24.92;66.25
70544;BME280;58097;48.364;-1.224;2023-06-14T08:46:48;99541.22;;;24.99;68.22
70544;BME280;58097;48.364;-1.224;2023-06-14T08:49:16;99546.47;;;25.13;68.79
70544;BME280;58097;48.364;-1.224;2023-06-14T08:51:42;99540.41;;;25.26;67.76
70544;BME280;58097;48.364;-1.224;2023-06-14T08:54:10;99538.78;;;25.35;67.53
70544;BME280;58097;48.364;-1.224;2023-06-14T08:56:37;99548.19;;;25.41;67.76
70544;BME280;58097;48.364;-1.224;2023-06-14T08:59:03;99547.13;;;25.47;67.63
70544;BME280;58097;48.364;-1.224;2023-06-14T09:01:33;99546.38;;;25.56;66.99
70544;BME280;58097;48.364;-1.224;2023-06-14T09:03:59;99545.75;;;25.49;64.61
70544;BME280;58097;48.364;-1.224;2023-06-14T09:06:25;99549.75;;;25.53;65.93
70544;BME280;58097;48.364;-1.224;2023-06-14T09:08:54;99552.94;;;25.62;67.05
70544;BME280;58097;48.364;-1.224;2023-06-14T09:11:20;99558.41;;;25.69;64.80
70544;BME280;58097;48.364;-1.224;2023-06-14T09:13:46;99556.50;;;25.74;65.14
70544;BME280;58097;48.364;-1.224;2023-06-14T09:16:12;99554.50;;;25.75;64.91
70544;BME280;58097;48.364;-1.224;2023-06-14T09:18:39;99554.59;;;25.85;63.67
70544;BME280;58097;48.364;-1.224;2023-06-14T09:21:06;99553.22;;;25.92;65.26
70544;BME280;58097;48.364;-1.224;2023-06-14T09:23:46;99552.78;;;26.06;65.40
70544;BME280;58097;48.364;-1.224;2023-06-14T09:26:13;99558.31;;;26.28;64.78
70544;BME280;58097;48.364;-1.224;2023-06-14T09:28:43;99560.44;;;26.42;64.17
70544;BME280;58097;48.364;-1.224;2023-06-14T09:31:21;99559.38;;;26.53;62.41
70544;BME280;58097;48.364;-1.224;2023-06-14T09:33:50;99555.19;;;26.61;59.85
70544;BME280;58097;48.364;-1.224;2023-06-14T09:36:18;99559.44;;;26.64;59.60
70544;BME280;58097;48.364;-1.224;2023-06-14T09:39:01;99557.63;;;26.47;59.59
70544;BME280;58097;48.364;-1.224;2023-06-14T09:41:40;99552.47;;;26.34;58.76
70544;BME280;58097;48.364;-1.224;2023-06-14T09:44:10;99555.13;;;26.56;61.41
70544;BME280;58097;48.364;-1.224;2023-06-14T09:46:37;99563.44;;;26.73;61.60
70544;BME280;58097;48.364;-1.224;2023-06-14T09:49:04;99568.00;;;26.79;57.12
70544;BME280;58097;48.364;-1.224;2023-06-14T09:51:30;99558.97;;;26.87;60.53
70544;BME280;58097;48.364;-1.224;2023-06-14T09:54:00;99560.38;;;26.84;56.49
70544;BME280;58097;48.364;-1.224;2023-06-14T09:56:32;99565.56;;;26.98;60.03
70544;BME280;58097;48.364;-1.224;2023-06-14T09:58:59;99564.47;;;27.04;59.29
70544;BME280;58097;48.364;-1.224;2023-06-14T10:01:30;99566.19;;;27.15;58.37
70544;BME280;58097;48.364;-1.224;2023-06-14T10:04:03;99567.41;;;27.29;60.01
70544;BME280;58097;48.364;-1.224;2023-06-14T10:06:29;99567.41;;;27.44;61.13
70544;BME280;58097;48.364;-1.224;2023-06-14T10:08:57;99569.44;;;27.54;56.00
70544;BME280;58097;48.364;-1.224;2023-06-14T10:11:26;99570.31;;;27.60;58.18
70544;BME280;58097;48.364;-1.224;2023-06-14T10:13:51;99573.19;;;27.65;56.64
70544;BME280;58097;48.364;-1.224;2023-06-14T10:16:20;99577.16;;;27.74;57.78
70544;BME280;58097;48.364;-1.224;2023-06-14T10:18:57;99582.59;;;27.86;57.41
70544;BME280;58097;48.364;-1.224;2023-06-14T10:23:59;99573.75;;;28.02;54.01
70544;BME280;58097;48.364;-1.224;2023-06-14T10:26:26;99582.00;;;27.99;55.93
70544;BME280;58097;48.364;-1.224;2023-06-14T10:28:59;99580.63;;;28.06;53.81
70544;BME280;58097;48.364;-1.224;2023-06-14T10:31:45;99582.31;;;28.13;53.92
70544;BME280;58097;48.364;-1.224;2023-06-14T10:34:31;99586.56;;;28.05;52.56
70544;BME280;58097;48.364;-1.224;2023-06-14T10:37:15;99580.63;;;28.06;53.93
70544;BME280;58097;48.364;-1.224;2023-06-14T10:39:45;99575.75;;;28.02;52.89
70544;BME280;58097;48.364;-1.224;2023-06-14T10:42:13;99576.34;;;28.19;55.94
70544;BME280;58097;48.364;-1.224;2023-06-14T10:44:49;99575.47;;;28.19;52.46
70544;BME280;58097;48.364;-1.224;2023-06-14T10:49:45;99568.94;;;28.44;55.97
70544;BME280;58097;48.364;-1.224;2023-06-14T10:52:15;99573.44;;;28.60;55.05
70544;BME280;58097;48.364;-1.224;2023-06-14T10:55:06;99570.84;;;28.79;56.05
70544;BME280;58097;48.364;-1.224;2023-06-14T10:57:49;99574.25;;;28.96;53.18
70544;BME280;58097;48.364;-1.224;2023-06-14T11:00:22;99567.16;;;28.93;48.51
70544;BME280;58097;48.364;-1.224;2023-06-14T11:03:24;99565.16;;;28.89;52.82
70544;BME280;58097;48.364;-1.224;2023-06-14T11:05:57;99568.25;;;28.97;54.79
70544;BME280;58097;48.364;-1.224;2023-06-14T11:11:12;99566.72;;;29.25;52.86
70544;BME280;58097;48.364;-1.224;2023-06-14T11:13:39;99571.19;;;29.37;53.15
70544;BME280;58097;48.364;-1.224;2023-06-14T11:16:15;99563.75;;;29.41;52.97
70544;BME280;58097;48.364;-1.224;2023-06-14T11:18:41;99560.91;;;29.46;51.39
70544;BME280;58097;48.364;-1.224;2023-06-14T11:21:08;99559.78;;;29.42;51.62
70544;BME280;58097;48.364;-1.224;2023-06-14T11:23:34;99564.88;;;29.55;52.07
70544;BME280;58097;48.364;-1.224;2023-06-14T11:26:00;99560.78;;;29.66;52.67
70544;BME280;58097;48.364;-1.224;2023-06-14T11:28:35;99563.00;;;29.79;52.46
70544;BME280;58097;48.364;-1.224;2023-06-14T11:31:02;99552.09;;;29.86;50.80
70544;BME280;58097;48.364;-1.224;2023-06-14T11:33:28;99557.50;;;29.88;51.76
70544;BME280;58097;48.364;-1.224;2023-06-14T11:35:53;99556.59;;;29.92;47.32
70544;BME280;58097;48.364;-1.224;2023-06-14T11:38:19;99548.59;;;29.60;47.15
70544;BME280;58097;48.364;-1.224;2023-06-14T11:40:44;99553.66;;;29.69;50.35
70544;BME280;58097;48.364;-1.224;2023-06-14T11:43:10;99548.75;;;29.74;49.72
70544;BME280;58097;48.364;-1.224;2023-06-14T11:45:35;99555.25;;;29.85;48.52
70544;BME280;58097;48.364;-1.224;2023-06-14T11:48:01;99554.06;;;29.91;51.82
70544;BME280;58097;48.364;-1.224;2023-06-14T11:50:27;99560.50;;;30.02;48.76
70544;BME280;58097;48.364;-1.224;2023-06-14T11:52:56;99549.06;;;30.12;49.11
70544;BME280;58097;48.364;-1.224;2023-06-14T11:55:23;99551.31;;;30.15;47.91
70544;BME280;58097;48.364;-1.224;2023-06-14T11:57:48;99552.53;;;30.04;46.35
70544;BME280;58097;48.364;-1.224;2023-06-14T12:00:15;99549.69;;;30.09;50.07
70544;BME280;58097;48.364;-1.224;2023-06-14T12:02:41;99548.78;;;30.13;48.13
70544;BME280;58097;48.364;-1.224;2023-06-14T12:05:07;99549.53;;;30.24;50.75
70544;BME280;58097;48.364;-1.224;2023-06-14T12:07:37;99545.41;;;30.35;50.53
70544;BME280;58097;48.364;-1.224;2023-06-14T12:10:06;99547.88;;;30.47;48.98
70544;BME280;58097;48.364;-1.224;2023-06-14T12:12:37;99551.34;;;30.44;45.42
70544;BME280;58097;48.364;-1.224;2023-06-14T12:15:04;99543.47;;;30.31;43.91
70544;BME280;58097;48.364;-1.224;2023-06-14T12:17:35;99546.19;;;30.17;46.46
70544;BME280;58097;48.364;-1.224;2023-06-14T12:20:12;99546.22;;;30.12;47.51
70544;BME280;58097;48.364;-1.224;2023-06-14T12:22:55;99539.88;;;30.20;45.69
70544;BME280;58097;48.364;-1.224;2023-06-14T12:25:28;99533.81;;;30.27;46.04
70544;BME280;58097;48.364;-1.224;2023-06-14T12:27:56;99532.41;;;30.24;44.37
70544;BME280;58097;48.364;-1.224;2023-06-14T12:30:22;99537.75;;;30.31;46.61
70544;BME280;58097;48.364;-1.224;2023-06-14T12:32:47;99537.72;;;30.36;44.93
70544;BME280;58097;48.364;-1.224;2023-06-14T12:35:13;99541.38;;;30.41;46.43
70544;BME280;58097;48.364;-1.224;2023-06-14T12:37:38;99541.94;;;30.43;45.91
70544;BME280;58097;48.364;-1.224;2023-06-14T12:41:32;99548.13;;;30.50;46.05
70544;BME280;58097;48.364;-1.224;2023-06-14T12:43:58;99540.72;;;30.49;42.55
70544;BME280;58097;48.364;-1.224;2023-06-14T12:46:24;99541.38;;;30.41;43.06
70544;BME280;58097;48.364;-1.224;2023-06-14T12:48:50;99539.06;;;30.43;43.51
70544;BME280;58097;48.364;-1.224;2023-06-14T12:51:16;99544.66;;;30.53;44.38
70544;BME280;58097;48.364;-1.224;2023-06-14T12:53:41;99537.19;;;30.58;44.34
70544;BME280;58097;48.364;-1.224;2023-06-14T12:56:07;99534.84;;;30.65;43.23
70544;BME280;58097;48.364;-1.224;2023-06-14T12:58:32;99540.28;;;30.66;44.41
70544;BME280;58097;48.364;-1.224;2023-06-14T13:00:57;99534.84;;;30.65;42.04
70544;BME280;58097;48.364;-1.224;2023-06-14T13:03:23;99534.34;;;30.58;43.43